Time;durP1;ratioP1;P1;durP2;ratioP2;P2;SDS_P1;SDS_P2;PMS_P1;PMS_P2;Temp;Humidity;BMP_temperature;BMP_pressure;BME280_temperature;BME280_humidity;BME280_pressure;Samples;Min_cycle;Max_cycle;Signal;HPM_P1;HPM_P2
2024/04/24 00:00:23;;;;;;;0.32;0.32;;;;;;;14.48;100.00;96341.91;5041517;28;20048;-79
2024/04/24 00:02:54;;;;;;;0.50;0.50;;;;;;;14.42;100.00;96330.88;5030088;28;20123;-79
2024/04/24 00:05:21;;;;;;;0.73;0.60;;;;;;;14.37;100.00;96330.47;5052496;28;20024;-80
2024/04/24 00:07:46;;;;;;;1.77;1.48;;;;;;;14.32;100.00;96325.50;5055548;28;20036;-79
2024/04/24 00:10:14;;;;;;;0.50;0.50;;;;;;;14.23;100.00;96306.72;5050540;28;20051;-79
2024/04/24 00:12:40;;;;;;;2.05;0.90;;;;;;;14.10;100.00;96309.72;5038049;28;20029;-79
2024/04/24 00:15:06;;;;;;;0.43;0.43;;;;;;;14.08;100.00;96319.78;5042514;28;20123;-79
2024/04/24 00:17:32;;;;;;;12.38;0.90;;;;;;;13.96;100.00;96315.59;5031463;28;21249;-78
2024/04/24 00:19:58;;;;;;;1.27;0.75;;;;;;;13.90;100.00;96308.09;5049907;28;20024;-80
2024/04/24 00:22:23;;;;;;;0.57;0.55;;;;;;;13.82;100.00;96316.03;5032545;28;20023;-80
2024/04/24 00:24:49;;;;;;;0.60;0.32;;;;;;;13.85;100.00;96321.97;5030664;28;20036;-80
2024/04/24 00:27:14;;;;;;;3.50;0.55;;;;;;;13.79;100.00;96321.69;5025163;28;20024;-78
2024/04/24 00:29:40;;;;;;;1.30;1.15;;;;;;;13.74;100.00;96315.91;5046873;28;20048;-78
2024/04/24 00:32:06;;;;;;;2.85;1.23;;;;;;;13.82;100.00;96316.03;5030059;28;20056;-78
2024/04/24 00:34:32;;;;;;;4.70;2.40;;;;;;;13.83;100.00;96307.00;5039853;28;20071;-78
2024/04/24 00:36:57;;;;;;;1.75;1.23;;;;;;;13.85;100.00;96299.63;5051247;28;20032;-79
2024/04/24 00:39:42;;;;;;;7.47;0.50;;;;;;;13.86;100.00;96306.69;5030497;28;20136;-79
2024/04/24 00:42:18;;;;;;;1.10;0.85;;;;;;;13.77;100.00;96305.72;5044045;28;20468;-79
2024/04/24 00:44:43;;;;;;;1.30;0.40;;;;;;;13.77;100.00;96303.03;5031714;28;20395;-78
2024/04/24 00:47:09;;;;;;;0.98;0.73;;;;;;;13.74;100.00;96306.03;5047697;28;20025;-78
2024/04/24 00:49:35;;;;;;;1.48;0.93;;;;;;;13.69;100.00;96304.78;5042542;28;20045;-78
2024/04/24 00:52:00;;;;;;;0.40;0.40;;;;;;;13.72;100.00;96312.53;5049955;28;20032;-79
2024/04/24 00:54:27;;;;;;;2.05;1.33;;;;;;;13.69;100.00;96289.47;5026042;28;20036;-79
2024/04/24 00:56:53;;;;;;;5.65;0.93;;;;;;;13.68;100.00;96295.00;5035223;28;20082;-79
2024/04/24 00:59:19;;;;;;;2.65;2.03;;;;;;;13.65;100.00;96295.28;5053105;28;20449;-80
2024/04/24 01:01:45;;;;;;;1.02;0.70;;;;;;;13.66;100.00;96291.63;5043573;28;20060;-79
2024/04/24 01:04:10;;;;;;;0.40;0.40;;;;;;;13.63;100.00;96289.22;5046465;28;20040;-78
2024/04/24 01:06:36;;;;;;;0.75;0.68;;;;;;;13.55;100.00;96269.28;5043341;28;20098;-78
2024/04/24 01:09:01;;;;;;;1.75;1.05;;;;;;;13.57;100.00;96282.56;5028288;28;20533;-78
2024/04/24 01:11:31;;;;;;;1.10;0.50;;;;;;;13.53;100.00;96276.63;5028765;28;20033;-79
2024/04/24 01:13:56;;;;;;;1.20;0.63;;;;;;;13.49;100.00;96272.56;5048134;28;20177;-79
2024/04/24 01:16:31;;;;;;;1.85;1.02;;;;;;;13.45;100.00;96281.88;5034643;28;20503;-79
2024/04/24 01:19:18;;;;;;;0.38;0.38;;;;;;;13.51;100.00;96273.25;5039591;28;20132;-80
2024/04/24 01:22:08;;;;;;;2.25;1.92;;;;;;;13.57;100.00;96267.28;5043231;28;20476;-78
2024/04/24 01:24:41;;;;;;;1.95;0.80;;;;;;;13.61;100.00;96258.94;5038375;28;20052;-78
2024/04/24 01:27:07;;;;;;;1.50;0.70;;;;;;;13.62;100.00;96258.81;5024629;28;20059;-78
2024/04/24 01:29:33;;;;;;;1.35;0.98;;;;;;;13.62;100.00;96255.28;5040153;28;20020;-79
2024/04/24 01:31:58;;;;;;;0.43;0.38;;;;;;;13.73;100.00;96264.00;5055422;28;20067;-78
2024/04/24 01:34:24;;;;;;;20.27;2.70;;;;;;;13.77;100.00;96261.88;5028683;28;20028;-78
2024/04/24 01:36:50;;;;;;;14.48;5.63;;;;;;;13.83;100.00;96258.59;5027924;28;20040;-78
2024/04/24 01:39:15;;;;;;;21.35;6.50;;;;;;;13.91;100.00;96262.25;5030500;28;20025;-79
2024/04/24 01:41:41;;;;;;;22.63;6.43;;;;;;;13.92;100.00;96263.94;5037710;28;20518;-77
2024/04/24 01:44:06;;;;;;;12.60;5.28;;;;;;;14.02;100.00;96261.22;5032705;28;20025;-78
2024/04/24 01:46:32;;;;;;;14.93;4.95;;;;;;;14.06;100.00;96262.59;5046521;28;20028;-78
2024/04/24 01:48:57;;;;;;;12.75;5.28;;;;;;;14.11;100.00;96271.09;5036036;28;20111;-78
2024/04/24 01:51:23;;;;;;;14.68;5.50;;;;;;;14.14;100.00;96262.75;5069774;28;20033;-80
2024/04/24 01:53:50;;;;;;;18.83;5.72;;;;;;;14.14;100.00;96276.19;5052795;28;20025;-78
2024/04/24 01:56:16;;;;;;;15.05;5.47;;;;;;;14.11;100.00;96268.41;5042254;28;20514;-79
2024/04/24 01:58:42;;;;;;;16.33;5.40;;;;;;;14.10;100.00;96285.53;5048890;28;20029;-79
2024/04/24 02:01:07;;;;;;;18.23;5.80;;;;;;;14.12;100.00;96294.28;5046744;28;20425;-79
2024/04/24 02:03:33;;;;;;;15.63;5.70;;;;;;;14.09;100.00;96289.19;5048627;28;20029;-79
2024/04/24 02:06:00;;;;;;;14.88;5.32;;;;;;;14.01;100.00;96275.66;5052546;28;20128;-78
2024/04/24 02:08:25;;;;;;;16.45;5.65;;;;;;;13.94;100.00;96280.78;5038273;28;20033;-78
2024/04/24 02:10:51;;;;;;;15.52;5.05;;;;;;;13.95;100.00;96293.22;5047933;28;20112;-78
2024/04/24 02:13:17;;;;;;;10.73;5.20;;;;;;;13.94;100.00;96285.28;5032786;28;20256;-78
2024/04/24 02:15:42;;;;;;;16.35;5.15;;;;;;;14.04;100.00;96288.81;5033030;28;20036;-78
2024/04/24 02:18:08;;;;;;;18.45;5.68;;;;;;;14.11;100.00;96298.00;5046637;28;20033;-79
2024/04/24 02:20:34;;;;;;;23.40;6.80;;;;;;;14.15;100.00;96310.13;5038195;28;20679;-78
2024/04/24 02:23:06;;;;;;;26.05;5.95;;;;;;;14.11;100.00;96303.38;5037052;28;20040;-78
2024/04/24 02:25:36;;;;;;;17.38;5.65;;;;;;;14.16;100.00;96305.59;5044657;28;20525;-79
2024/04/24 02:28:03;;;;;;;22.48;5.60;;;;;;;14.13;100.00;96314.81;5066706;28;20032;-78
2024/04/24 02:30:29;;;;;;;19.52;5.57;;;;;;;14.13;100.00;96326.41;5029007;28;20025;-78
2024/04/24 02:32:55;;;;;;;17.77;5.60;;;;;;;14.00;100.00;96314.28;5055176;28;20095;-78
2024/04/24 02:35:21;;;;;;;14.57;5.60;;;;;;;13.98;100.00;96325.19;5047099;28;20028;-79
2024/04/24 02:37:46;;;;;;;27.50;6.03;;;;;;;13.94;100.00;96322.94;5041378;28;20031;-77
2024/04/24 02:40:12;;;;;;;24.90;6.05;;;;;;;13.84;100.00;96327.50;5043785;28;20032;-79
2024/04/24 02:42:37;;;;;;;27.67;6.45;;;;;;;13.78;100.00;96347.72;5060410;28;20037;-79
2024/04/24 02:45:04;;;;;;;28.25;6.35;;;;;;;13.69;100.00;96345.91;5067559;28;20028;-78
2024/04/24 02:47:29;;;;;;;22.95;5.93;;;;;;;13.66;100.00;96337.31;5069048;28;20403;-78
2024/04/24 02:49:55;;;;;;;21.95;6.07;;;;;;;13.67;100.00;96337.16;5045212;28;20056;-79
2024/04/24 02:52:20;;;;;;;21.38;5.90;;;;;;;13.64;100.00;96331.19;5054585;28;20028;-78
2024/04/24 02:54:46;;;;;;;30.13;6.10;;;;;;;13.66;100.00;96348.06;5038940;28;20053;-78
2024/04/24 02:57:11;;;;;;;27.05;6.00;;;;;;;13.65;100.00;96338.28;5033952;28;20061;-78
2024/04/24 02:59:37;;;;;;;12.63;6.00;;;;;;;13.66;100.00;96340.00;5017863;28;20057;-78
2024/04/24 03:02:03;;;;;;;19.20;5.32;;;;;;;13.57;100.00;96345.22;5015866;28;20089;-78
2024/04/24 03:04:28;;;;;;;17.05;5.80;;;;;;;13.53;100.00;96351.84;5025291;28;20060;-79
2024/04/24 03:06:54;;;;;;;22.35;6.90;;;;;;;13.46;100.00;96350.75;5006498;28;20034;-78
2024/04/24 03:09:19;;;;;;;20.58;6.35;;;;;;;13.43;100.00;96350.19;4990777;28;20022;-79
2024/04/24 03:11:45;;;;;;;19.70;6.22;;;;;;;13.42;100.00;96348.47;5024051;28;20040;-78
2024/04/24 03:14:11;;;;;;;18.67;5.85;;;;;;;13.41;100.00;96349.47;5006598;28;20049;-78
2024/04/24 03:16:36;;;;;;;22.02;6.82;;;;;;;13.36;100.00;96349.88;5007287;28;20064;-78
2024/04/24 03:19:02;;;;;;;18.08;6.35;;;;;;;13.35;100.00;96353.56;5023581;28;20029;-77
2024/04/24 03:21:28;;;;;;;18.33;6.22;;;;;;;13.29;100.00;96348.75;5022872;28;20030;-79
2024/04/24 03:23:53;;;;;;;16.20;6.32;;;;;;;13.26;100.00;96346.34;4991603;28;20084;-77
2024/04/24 03:26:19;;;;;;;23.13;8.13;;;;;;;13.21;100.00;96350.44;4989306;28;20033;-78
2024/04/24 03:28:44;;;;;;;23.88;7.43;;;;;;;13.18;100.00;96348.03;4991757;28;20129;-78
2024/04/24 03:31:10;;;;;;;27.35;8.68;;;;;;;13.13;100.00;96356.53;4987272;28;20037;-79
2024/04/24 03:33:36;;;;;;;25.08;7.65;;;;;;;13.20;100.00;96367.53;5010494;28;20108;-80
2024/04/24 03:36:01;;;;;;;27.25;7.93;;;;;;;13.12;100.00;96348.59;5016142;28;20163;-79
2024/04/24 03:38:27;;;;;;;27.42;7.25;;;;;;;13.18;100.00;96361.47;5003316;28;20118;-79
2024/04/24 03:40:52;;;;;;;25.27;7.50;;;;;;;13.28;100.00;96367.69;4999952;28;20033;-79
2024/04/24 03:43:18;;;;;;;23.02;6.40;;;;;;;13.32;100.00;96364.56;5008882;28;20096;-78
2024/04/24 03:45:44;;;;;;;22.02;6.85;;;;;;;13.50;100.00;96368.25;5002232;28;20048;-79
2024/04/24 03:48:10;;;;;;;18.13;6.72;;;;;;;13.48;100.00;96370.25;5004630;28;20030;-79
2024/04/24 03:50:36;;;;;;;15.00;6.18;;;;;;;13.51;100.00;96378.03;5011183;28;20026;-79
2024/04/24 03:53:01;;;;;;;27.25;7.75;;;;;;;13.51;100.00;96385.22;5024219;28;20036;-78
2024/04/24 03:55:27;;;;;;;21.30;7.30;;;;;;;13.50;100.00;96391.59;5009420;28;20108;-78
2024/04/24 03:57:52;;;;;;;22.88;6.45;;;;;;;13.42;100.00;96392.31;5010884;28;20531;-78
2024/04/24 04:00:18;;;;;;;24.83;6.70;;;;;;;13.41;100.00;96385.22;5029456;28;20033;-78
2024/04/24 04:02:44;;;;;;;20.70;7.18;;;;;;;13.45;100.00;96397.38;5040757;28;20028;-78
2024/04/24 04:05:10;;;;;;;25.83;6.50;;;;;;;13.51;100.00;96407.56;5015767;28;20021;-78
2024/04/24 04:07:36;;;;;;;30.65;8.98;;;;;;;13.50;100.00;96403.19;5035090;28;20021;-77
2024/04/24 04:10:02;;;;;;;21.98;8.07;;;;;;;13.51;100.00;96410.25;5007158;28;20044;-77
2024/04/24 04:12:28;;;;;;;15.63;5.78;;;;;;;13.54;100.00;96396.53;5037769;28;20029;-78
2024/04/24 04:14:57;;;;;;;20.88;5.70;;;;;;;13.69;100.00;96396.94;5016692;28;20088;-79
2024/04/24 04:17:23;;;;;;;40.55;18.15;;;;;;;13.82;100.00;96391.28;5037545;28;20032;-77
2024/04/24 04:19:48;;;;;;;50.50;27.00;;;;;;;14.05;100.00;96392.69;5035214;28;20052;-77
2024/04/24 04:22:14;;;;;;;34.08;16.63;;;;;;;14.19;100.00;96380.59;5034727;28;20415;-78
2024/04/24 04:24:41;;;;;;;37.20;18.63;;;;;;;14.42;100.00;96385.53;5031862;28;20033;-77
2024/04/24 04:27:06;;;;;;;15.13;5.97;;;;;;;14.65;100.00;96394.06;5042939;28;20180;-77
2024/04/24 04:29:32;;;;;;;19.13;6.78;;;;;;;14.77;100.00;96397.41;5015541;28;20099;-74
2024/04/24 04:31:58;;;;;;;31.40;10.38;;;;;;;14.91;100.00;96388.84;5050614;28;20111;-75
2024/04/24 04:34:26;;;;;;;24.90;9.32;;;;;;;14.97;100.00;96394.50;5042561;28;20028;-78
2024/04/24 04:36:52;;;;;;;25.63;6.18;;;;;;;14.98;100.00;96398.84;5009559;28;20056;-79
2024/04/24 04:39:17;;;;;;;26.27;6.53;;;;;;;14.95;100.00;96396.47;5054425;28;20033;-77
2024/04/24 04:41:43;;;;;;;33.72;8.00;;;;;;;14.87;100.00;96393.69;5039530;28;20393;-79
2024/04/24 04:44:08;;;;;;;23.67;6.40;;;;;;;14.79;100.00;96403.50;5031403;28;20372;-77
2024/04/24 04:46:34;;;;;;;29.35;6.45;;;;;;;14.68;100.00;96406.38;5051659;28;20025;-78
2024/04/24 04:49:00;;;;;;;21.10;6.93;;;;;;;14.62;100.00;96406.00;5045017;28;20036;-75
2024/04/24 04:51:25;;;;;;;21.85;6.20;;;;;;;14.60;100.00;96405.28;5044811;28;20528;-76
2024/04/24 04:53:51;;;;;;;26.85;6.38;;;;;;;14.67;100.00;96402.00;5025763;28;20030;-76
2024/04/24 04:56:16;;;;;;;22.30;6.40;;;;;;;14.74;100.00;96403.09;5032646;28;20049;-76
2024/04/24 04:58:42;;;;;;;37.63;13.25;;;;;;;14.97;100.00;96409.78;5013198;28;20033;-76
2024/04/24 05:01:08;;;;;;;20.77;7.47;;;;;;;15.18;100.00;96408.53;5012957;28;20036;-75
2024/04/24 05:03:34;;;;;;;44.05;16.77;;;;;;;15.32;100.00;96404.47;4996657;28;20072;-75
2024/04/24 05:06:00;;;;;;;72.15;27.20;;;;;;;15.66;100.00;96415.44;5012914;28;20029;-75
2024/04/24 05:08:25;;;;;;;29.13;9.77;;;;;;;16.00;100.00;96410.19;5013092;28;20480;-76
2024/04/24 05:10:51;;;;;;;32.67;9.13;;;;;;;16.09;100.00;96404.72;5029440;28;20036;-76
2024/04/24 05:13:17;;;;;;;14.85;4.95;;;;;;;15.95;100.00;96396.34;5029550;28;20448;-76
2024/04/24 05:15:42;;;;;;;21.15;6.05;;;;;;;16.00;100.00;96388.63;5029093;28;20029;-76
2024/04/24 05:18:08;;;;;;;10.88;4.22;;;;;;;16.08;100.00;96384.16;5010747;28;20028;-77
2024/04/24 05:20:34;;;;;;;16.48;5.40;;;;;;;16.40;100.00;96393.44;5013075;28;20105;-78
2024/04/24 05:23:04;;;;;;;22.27;9.27;;;;;;;16.69;100.00;96383.22;5019111;28;20040;-78
2024/04/24 05:25:32;;;;;;;14.50;5.95;;;;;;;17.09;100.00;96387.94;5008470;28;20404;-77
2024/04/24 05:30:45;;;;;;;11.57;5.07;;;;;;;18.03;100.00;96393.88;5021723;28;20408;-77
2024/04/24 05:33:11;;;;;;;42.78;14.02;;;;;;;18.63;100.00;96397.91;5021504;28;20037;-76
2024/04/24 05:35:36;;;;;;;13.80;5.22;;;;;;;19.37;100.00;96380.34;4999180;28;20041;-76
2024/04/24 05:38:02;;;;;;;10.93;4.30;;;;;;;19.26;100.00;96373.44;5004240;28;20291;-76
2024/04/24 05:40:28;;;;;;;10.98;3.60;;;;;;;19.12;100.00;96371.50;5011403;28;20096;-77
2024/04/24 05:42:53;;;;;;;9.82;3.35;;;;;;;18.92;100.00;96372.91;5019272;28;20041;-80
2024/04/24 05:45:19;;;;;;;48.67;25.25;;;;;;;18.57;100.00;96370.69;5002293;28;20056;-77
2024/04/24 05:47:45;;;;;;;15.82;4.43;;;;;;;18.54;100.00;96388.13;5004872;28;20559;-76
2024/04/24 05:50:11;;;;;;;9.70;4.07;;;;;;;19.20;100.00;96386.84;5025961;28;20017;-75
2024/04/24 05:52:36;;;;;;;13.77;3.70;;;;;;;20.66;100.00;96367.66;5027570;28;20037;-74
2024/04/24 05:55:02;;;;;;;14.30;3.92;;;;;;;21.92;87.02;96361.78;5022091;28;20068;-72
2024/04/24 05:57:29;;;;;;;8.43;3.47;;;;;;;22.91;72.92;96341.66;5030793;28;20561;-74
2024/04/24 05:59:54;;;;;;;8.70;3.00;;;;;;;23.55;68.30;96355.81;5044736;28;20040;-74
2024/04/24 06:02:20;;;;;;;7.10;3.00;;;;;;;24.63;58.90;96338.31;5031213;28;20028;-72
2024/04/24 06:04:50;;;;;;;4.38;2.10;;;;;;;25.03;53.61;96334.50;5051032;28;20517;-74
2024/04/24 06:07:16;;;;;;;6.45;2.90;;;;;;;25.33;53.15;96334.81;5051037;28;20099;-74
2024/04/24 06:09:42;;;;;;;11.80;3.50;;;;;;;25.48;52.33;96342.75;5033054;28;20491;-73
2024/04/24 06:12:07;;;;;;;7.70;3.60;;;;;;;24.44;55.55;96345.50;5033025;28;20450;-73
2024/04/24 06:14:33;;;;;;;8.35;2.75;;;;;;;25.30;52.31;96330.63;5032884;28;20059;-73
2024/04/24 06:16:59;;;;;;;7.53;2.65;;;;;;;25.67;50.93;96334.47;5050652;28;20409;-74
2024/04/24 06:19:24;;;;;;;7.43;2.20;;;;;;;26.64;47.79;96333.19;5050501;28;20108;-73
2024/04/24 06:21:50;;;;;;;44.45;17.65;;;;;;;27.05;45.99;96318.88;5050777;28;20017;-75
2024/04/24 06:24:15;;;;;;;18.17;9.63;;;;;;;27.09;45.32;96329.19;5032713;28;20064;-74
2024/04/24 06:27:00;;;;;;;21.85;12.90;;;;;;;26.60;47.14;96338.28;5050648;28;20071;-74
2024/04/24 06:29:25;;;;;;;14.75;9.23;;;;;;;26.17;48.25;96335.47;5050470;28;20025;-75
2024/04/24 06:31:51;;;;;;;32.72;16.58;;;;;;;25.97;49.45;96342.94;5025723;28;20044;-76
2024/04/24 06:34:16;;;;;;;7.88;4.13;;;;;;;26.54;48.07;96332.84;5008062;28;20443;-76
2024/04/24 06:36:42;;;;;;;5.82;2.22;;;;;;;26.15;46.53;96334.84;5021491;28;20029;-76
2024/04/24 06:39:09;;;;;;;16.60;7.07;;;;;;;25.08;49.46;96348.38;5041595;28;20116;-75
2024/04/24 06:41:34;;;;;;;9.05;3.47;;;;;;;24.69;50.54;96342.94;5009022;28;20056;-76
2024/04/24 06:44:00;;;;;;;7.45;2.95;;;;;;;24.34;53.29;96356.00;5032535;28;20036;-76
2024/04/24 06:46:25;;;;;;;8.23;2.20;;;;;;;23.73;53.73;96355.25;5032611;28;20056;-76
2024/04/24 06:48:51;;;;;;;4.70;2.10;;;;;;;23.70;54.64;96359.22;5014333;28;20033;-76
2024/04/24 06:51:17;;;;;;;15.80;7.07;;;;;;;25.46;48.92;96339.41;5046286;28;20021;-75
2024/04/24 06:53:42;;;;;;;4.82;2.97;;;;;;;25.42;48.30;96343.63;5050230;28;20096;-78
2024/04/24 06:56:08;;;;;;;19.25;7.18;;;;;;;25.79;46.97;96348.31;5012173;28;20049;-76
2024/04/24 06:58:34;;;;;;;9.98;4.82;;;;;;;26.52;47.16;96345.97;5022035;28;20039;-76
2024/04/24 07:01:04;;;;;;;9.55;2.85;;;;;;;26.60;44.78;96341.03;5031967;28;20025;-77
2024/04/24 07:03:33;;;;;;;8.35;1.80;;;;;;;26.20;45.91;96343.25;5032276;28;20029;-75
2024/04/24 07:05:58;;;;;;;6.15;1.40;;;;;;;24.99;48.61;96352.41;5042078;28;20424;-76
2024/04/24 07:08:24;;;;;;;5.28;1.50;;;;;;;24.20;56.50;96359.78;5016944;28;20030;-77
2024/04/24 07:11:06;;;;;;;13.07;1.90;;;;;;;24.37;61.77;96371.97;5032337;28;20021;-79
2024/04/24 07:13:32;;;;;;;;;;;;;;;23.81;59.28;96370.63;5032466;28;20069;-80
2024/04/24 07:15:57;;;;;;;7.03;2.03;;;;;;;24.48;62.57;96378.72;5050305;28;20339;-80
2024/04/24 07:18:23;;;;;;;5.97;1.30;;;;;;;24.62;57.33;96361.25;5032645;28;20103;-82
2024/04/24 07:20:48;;;;;;;7.20;1.50;;;;;;;25.89;53.30;96362.41;5029734;28;20420;-81
2024/04/24 07:23:16;;;;;;;4.28;1.52;;;;;;;26.03;48.30;96353.03;5032602;28;20039;-82
2024/04/24 07:25:42;;;;;;;20.38;2.60;;;;;;;26.64;48.70;96344.19;5050287;28;20587;-81
2024/04/24 07:28:08;;;;;;;8.52;2.10;;;;;;;27.00;42.66;96322.31;5031575;28;20160;-82
2024/04/24 07:30:35;;;;;;;8.18;2.67;;;;;;;27.01;41.21;96323.97;5015730;28;20124;-82
2024/04/24 07:33:00;;;;;;;6.70;2.50;;;;;;;26.85;41.59;96321.84;5032847;28;20036;-82
2024/04/24 07:35:26;;;;;;;9.27;2.17;;;;;;;25.87;43.71;96334.38;5032527;28;20024;-82
2024/04/24 07:38:05;;;;;;;8.57;1.92;;;;;;;25.84;43.89;96343.03;5030994;28;20515;-81
2024/04/24 07:40:30;;;;;;;5.45;1.05;;;;;;;26.05;42.16;96325.41;5012570;28;20052;-81
2024/04/24 07:42:56;;;;;;;5.30;2.65;;;;;;;25.86;42.51;96328.06;5031842;28;20033;-82
2024/04/24 07:45:21;;;;;;;8.93;4.63;;;;;;;27.45;40.77;96322.88;5035004;28;20028;-82
2024/04/24 07:47:50;;;;;;;6.60;3.20;;;;;;;28.81;38.54;96310.06;5032678;28;20041;-82
2024/04/24 07:50:15;;;;;;;3.55;1.80;;;;;;;29.03;36.61;96307.53;5032395;28;20090;-82
2024/04/24 07:52:41;;;;;;;5.30;1.70;;;;;;;28.52;38.93;96311.78;5031557;28;20041;-80
2024/04/24 07:55:06;;;;;;;7.60;1.75;;;;;;;28.32;37.80;96310.44;5031205;28;20557;-80
2024/04/24 07:57:32;;;;;;;4.97;1.40;;;;;;;26.87;42.22;96334.25;5031561;28;20120;-82
2024/04/24 07:59:58;;;;;;;8.18;2.83;;;;;;;28.17;38.73;96319.16;5031379;28;20411;-84
2024/04/24 08:02:23;;;;;;;7.95;1.70;;;;;;;28.21;39.16;96312.09;5049438;28;20076;-84
2024/04/24 08:04:49;;;;;;;9.13;1.70;;;;;;;27.63;41.12;96328.34;5014992;28;20412;-84
2024/04/24 08:07:15;;;;;;;5.97;1.30;;;;;;;28.14;39.79;96327.88;5014621;28;20043;-84
2024/04/24 08:09:41;;;;;;;8.73;1.77;;;;;;;28.72;38.21;96300.47;5023244;28;20017;-84
2024/04/24 08:12:07;;;;;;;6.38;1.30;;;;;;;28.47;37.12;96308.91;5026718;28;20051;-83
2024/04/24 08:14:32;;;;;;;3.53;1.75;;;;;;;29.61;36.02;96309.34;5044155;28;20021;-83
2024/04/24 08:16:58;;;;;;;5.05;1.23;;;;;;;30.76;34.09;96305.19;5012821;28;20037;-82
2024/04/24 08:19:23;;;;;;;6.38;1.48;;;;;;;30.79;33.79;96296.41;5011909;28;20043;-84
2024/04/24 08:21:49;;;;;;;7.40;1.48;;;;;;;28.23;36.42;96301.69;5031144;28;20048;-82
2024/04/24 08:24:15;;;;;;;5.18;1.48;;;;;;;26.86;38.50;96304.28;5044506;28;20059;-81
2024/04/24 08:26:40;;;;;;;9.68;1.40;;;;;;;26.75;38.24;96297.63;5020921;28;20104;-84
2024/04/24 08:29:09;;;;;;;30.98;19.95;;;;;;;27.16;38.50;96297.00;5014301;28;20031;-83
2024/04/24 08:31:35;;;;;;;6.47;2.58;;;;;;;27.59;36.52;96287.81;5025915;28;20534;-83
2024/04/24 08:34:01;;;;;;;5.97;1.30;;;;;;;25.67;38.77;96287.91;5048954;28;20029;-83
2024/04/24 08:36:26;;;;;;;3.90;1.27;;;;;;;24.44;42.58;96295.44;5040684;28;20103;-83
2024/04/24 08:38:54;;;;;;;4.65;1.27;;;;;;;26.21;41.45;96303.78;5016177;28;20036;-83
2024/04/24 08:41:20;;;;;;;4.43;1.08;;;;;;;28.93;36.78;96296.28;5015664;28;20032;-83
2024/04/24 08:43:47;;;;;;;10.23;1.50;;;;;;;29.41;35.94;96294.06;5030848;28;20067;-84
2024/04/24 08:46:13;;;;;;;4.25;1.50;;;;;;;29.45;33.91;96287.00;5030766;28;20483;-84
2024/04/24 08:48:42;;;;;;;8.13;1.80;;;;;;;29.97;33.75;96278.66;5013948;28;20047;-83
2024/04/24 08:51:09;;;;;;;7.72;1.70;;;;;;;31.29;33.58;96271.44;5022155;28;20052;-84
2024/04/24 08:53:36;;;;;;;4.95;1.75;;;;;;;30.17;34.64;96270.75;5029167;28;20071;-83
2024/04/24 08:56:07;;;;;;;5.85;1.45;;;;;;;31.12;33.63;96268.75;5013778;28;20106;-83
2024/04/24 08:58:36;;;;;;;8.40;1.20;;;;;;;31.69;32.27;96260.91;5030719;28;20595;-83
2024/04/24 09:01:08;;;;;;;4.75;1.25;;;;;;;29.66;34.32;96263.41;5028828;28;20052;-82
2024/04/24 09:03:44;;;;;;;5.72;1.40;;;;;;;29.96;35.42;96272.28;5028705;28;20030;-84
2024/04/24 09:06:11;;;;;;;5.28;1.75;;;;;;;28.51;36.64;96268.00;5004571;28;20154;-83
2024/04/24 09:08:37;;;;;;;2.58;1.30;;;;;;;29.10;35.97;96283.47;5043547;28;20087;-84
2024/04/24 09:11:03;;;;;;;2.17;1.15;;;;;;;29.88;34.12;96260.84;5030025;28;20036;-83
2024/04/24 09:13:29;;;;;;;6.97;1.80;;;;;;;29.22;34.43;96265.00;5026819;28;20048;-82
2024/04/24 09:15:55;;;;;;;8.95;1.80;;;;;;;28.23;37.38;96267.84;5020281;28;20033;-82
2024/04/24 09:18:21;;;;;;;8.70;1.30;;;;;;;27.33;37.76;96256.84;5031356;28;20032;-82
2024/04/24 09:20:47;;;;;;;3.85;1.27;;;;;;;26.12;39.32;96263.13;5029922;28;20033;-82
2024/04/24 09:23:19;;;;;;;4.07;1.38;;;;;;;25.45;39.81;96271.97;5029960;28;20055;-82
2024/04/24 09:25:45;;;;;;;2.70;1.07;;;;;;;26.56;38.80;96264.88;5029500;28;20591;-82
2024/04/24 09:28:11;;;;;;;8.93;1.50;;;;;;;26.24;40.32;96273.19;5028729;28;20111;-82
2024/04/24 09:30:37;;;;;;;4.68;1.88;;;;;;;25.97;39.86;96265.34;5026597;28;20476;-83
2024/04/24 09:33:04;;;;;;;6.82;1.80;;;;;;;26.47;40.49;96277.22;5028842;28;20033;-83
2024/04/24 09:35:29;;;;;;;7.93;1.80;;;;;;;26.01;39.65;96264.69;5045001;28;20035;-83
2024/04/24 09:37:56;;;;;;;3.65;1.63;;;;;;;25.25;41.26;96286.63;5014298;28;20116;-82
2024/04/24 09:40:21;;;;;;;4.40;1.60;;;;;;;24.51;40.87;96279.88;5032820;28;20483;-83
2024/04/24 09:42:48;;;;;;;11.27;1.85;;;;;;;23.99;42.62;96281.53;5018375;28;20025;-81
2024/04/24 09:45:14;;;;;;;4.57;1.60;;;;;;;25.49;40.04;96263.16;5019674;28;20051;-84
2024/04/24 09:47:43;;;;;;;7.78;2.78;;;;;;;27.27;38.72;96249.53;5020075;28;20112;-83
2024/04/24 09:50:09;;;;;;;5.97;1.50;;;;;;;28.60;35.71;96249.22;5008776;28;20044;-83
2024/04/24 09:52:35;;;;;;;10.60;2.05;;;;;;;29.41;34.60;96232.63;5010730;28;20029;-84
2024/04/24 09:55:02;;;;;;;15.55;1.88;;;;;;;30.06;34.02;96235.78;5036073;28;20118;-83
2024/04/24 09:57:32;;;;;;;3.33;1.95;;;;;;;30.64;34.59;96227.94;5019633;28;20035;-83
2024/04/24 10:00:00;;;;;;;6.28;1.52;;;;;;;29.60;36.03;96236.84;5019805;28;20028;-83
2024/04/24 10:02:30;;;;;;;7.72;2.03;;;;;;;29.32;36.05;96234.91;5027932;28;20032;-82
2024/04/24 10:05:09;;;;;;;9.32;2.15;;;;;;;29.88;36.51;96230.50;5018721;28;20114;-83
2024/04/24 10:07:40;;;;;;;15.65;3.13;;;;;;;30.34;35.22;96219.16;5018349;28;20421;-83
2024/04/24 10:10:07;;;;;;;4.22;1.55;;;;;;;30.63;33.75;96206.97;5019480;28;20017;-83
2024/04/24 10:12:35;;;;;;;5.28;1.60;;;;;;;31.10;33.30;96212.06;5028841;28;20405;-83
2024/04/24 10:15:07;;;;;;;7.10;1.30;;;;;;;30.86;32.96;96207.81;5026454;28;20051;-82
2024/04/24 10:17:35;;;;;;;6.28;1.50;;;;;;;30.41;32.36;96199.72;5038965;28;20032;-83
2024/04/24 10:20:03;;;;;;;5.75;1.48;;;;;;;29.73;33.54;96199.84;5034649;28;20067;-81
2024/04/24 10:22:32;;;;;;;8.02;1.77;;;;;;;30.55;33.95;96204.63;5019295;28;20028;-82
2024/04/24 10:25:00;;;;;;;9.93;2.25;;;;;;;30.20;34.07;96200.44;5030958;28;20021;-83
2024/04/24 10:27:26;;;;;;;10.02;2.08;;;;;;;29.81;33.51;96196.72;5036149;28;20502;-83
2024/04/24 10:29:54;;;;;;;4.28;1.42;;;;;;;30.43;32.70;96195.59;5019415;28;20013;-82
2024/04/24 10:32:21;;;;;;;5.60;1.83;;;;;;;30.29;33.67;96202.53;5017843;28;20021;-83
2024/04/24 10:34:49;;;;;;;9.27;1.73;;;;;;;30.94;33.49;96199.09;5018296;28;20082;-82
2024/04/24 10:37:14;;;;;;;5.72;1.85;;;;;;;31.61;32.14;96206.09;5035501;28;20033;-82
2024/04/24 10:39:42;;;;;;;6.20;2.00;;;;;;;31.76;31.94;96210.09;5034539;28;20055;-83
2024/04/24 10:42:07;;;;;;;6.07;1.75;;;;;;;32.95;31.08;96207.81;5035347;28;20024;-83
2024/04/24 10:44:33;;;;;;;16.65;11.30;;;;;;;32.52;31.01;96201.38;5011476;28;20037;-82
2024/04/24 10:46:58;;;;;;;10.60;2.08;;;;;;;31.90;31.43;96203.06;5051736;28;20025;-81
2024/04/24 10:49:27;;;;;;;4.93;1.70;;;;;;;31.10;31.92;96203.78;5025607;28;20032;-81
2024/04/24 10:51:53;;;;;;;7.97;1.40;;;;;;;28.58;34.31;96215.59;5035286;28;20055;-79
2024/04/24 10:54:19;;;;;;;3.05;1.55;;;;;;;27.44;37.32;96217.63;5035069;28;20060;-79
2024/04/24 10:56:48;;;;;;;5.15;1.70;;;;;;;28.08;36.42;96213.31;5018883;28;20551;-80
2024/04/24 10:59:14;;;;;;;8.98;2.05;;;;;;;27.64;37.25;96211.84;5033623;28;20090;-78
2024/04/24 11:01:45;;;;;;;6.93;1.90;;;;;;;27.07;37.66;96215.97;5018543;28;20040;-80
2024/04/24 11:04:12;;;;;;;6.57;1.98;;;;;;;27.02;38.50;96224.06;5052841;28;20097;-79
2024/04/24 11:06:39;;;;;;;7.82;1.83;;;;;;;26.70;39.36;96225.28;5035390;28;20392;-79
2024/04/24 11:09:05;;;;;;;6.45;2.13;;;;;;;28.34;37.15;96215.59;5033824;28;20062;-79
2024/04/24 11:11:31;;;;;;;8.00;1.88;;;;;;;27.90;36.21;96219.69;5052668;28;20497;-79
2024/04/24 11:14:01;;;;;;;9.20;3.72;;;;;;;27.59;37.99;96221.88;5032509;28;20476;-80
2024/04/24 11:16:27;;;;;;;3.80;1.83;;;;;;;26.22;38.42;96217.72;5052612;28;20400;-81
2024/04/24 11:18:53;;;;;;;9.20;2.05;;;;;;;25.43;40.52;96227.56;5028157;28;20399;-80
2024/04/24 11:21:26;;;;;;;11.40;2.92;;;;;;;24.82;42.35;96236.28;5018234;28;20037;-78
2024/04/24 11:23:56;;;;;;;6.50;2.28;;;;;;;24.64;43.34;96241.56;5033699;28;20040;-80